Time;durP1;ratioP1;P1;durP2;ratioP2;P2;SDS_P1;SDS_P2;PMS_P1;PMS_P2;Temp;Humidity;BMP_temperature;BMP_pressure;BME280_temperature;BME280_humidity;BME280_pressure;Samples;Min_cycle;Max_cycle;Signal;HPM_P1;HPM_P2
2023/04/26 00:00:19;;;;;;;3.90;1.80;;;;;;;;;;107639;285;42162;-31
2023/04/26 00:03:13;;;;;;;3.80;1.90;;;;;;;;;;107615;285;38913;-31
2023/04/26 00:05:49;;;;;;;3.70;1.90;;;;;;;;;;107614;285;39879;-31
2023/04/26 00:08:25;;;;;;;4.20;2.00;;;;;;;;;;107655;285;43012;-31
2023/04/26 00:11:00;;;;;;;4.30;1.80;;;;;;;;;;107596;277;42176;-31
2023/04/26 00:13:34;;;;;;;4.20;1.90;;;;;;;;;;107596;283;39992;-31
2023/04/26 00:16:08;;;;;;;3.60;1.70;;;;;;;;;;107657;285;40784;-31
2023/04/26 00:18:45;;;;;;;3.40;1.80;;;;;;;;;;107663;285;44065;-31
2023/04/26 00:21:20;;;;;;;3.70;1.80;;;;;;;;;;107645;281;42251;-31
2023/04/26 00:23:55;;;;;;;3.50;1.50;;;;;;;;;;107605;285;38768;-31
2023/04/26 00:26:33;;;;;;;3.80;1.80;;;;;;;;;;107658;277;39843;-31
2023/04/26 00:29:09;;;;;;;3.60;1.60;;;;;;;;;;107647;283;42688;-31
2023/04/26 00:31:47;;;;;;;3.60;1.50;;;;;;;;;;107610;285;42097;-31
2023/04/26 00:34:22;;;;;;;3.40;1.50;;;;;;;;;;107599;285;39220;-31
2023/04/26 00:36:57;;;;;;;3.60;1.50;;;;;;;;;;107604;285;39732;-31
2023/04/26 00:39:32;;;;;;;3.50;1.60;;;;;;;;;;107647;285;43014;-31
2023/04/26 00:42:07;;;;;;;3.20;1.50;;;;;;;;;;106973;285;896611;-31
2023/04/26 00:44:43;;;;;;;3.50;1.50;;;;;;;;;;107670;282;38924;-31
2023/04/26 00:47:18;;;;;;;3.00;1.40;;;;;;;;;;107636;282;39703;-31
2023/04/26 00:49:52;;;;;;;4.00;1.60;;;;;;;;;;107650;285;43068;-31
2023/04/26 00:52:28;;;;;;;2.90;1.30;;;;;;;;;;107636;285;42502;-31
2023/04/26 00:55:04;;;;;;;3.20;1.30;;;;;;;;;;107595;285;38815;-31
2023/04/26 00:57:40;;;;;;;3.20;1.30;;;;;;;;;;107629;285;39749;-31
2023/04/26 01:00:16;;;;;;;2.90;1.20;;;;;;;;;;107648;282;42727;-31
2023/04/26 01:02:51;;;;;;;3.10;1.20;;;;;;;;;;107637;282;42258;-31
2023/04/26 01:05:25;;;;;;;2.70;1.30;;;;;;;;;;107604;285;38825;-31
2023/04/26 01:08:01;;;;;;;3.00;1.30;;;;;;;;;;107641;282;39742;-31
2023/04/26 01:10:36;;;;;;;2.80;1.10;;;;;;;;;;107631;285;42915;-31
2023/04/26 01:13:09;;;;;;;2.80;1.40;;;;;;;;;;107451;284;42124;-31
2023/04/26 01:15:46;;;;;;;2.90;1.40;;;;;;;;;;107612;283;38574;-31
2023/04/26 01:18:20;;;;;;;2.80;1.30;;;;;;;;;;107656;285;40856;-31
2023/04/26 01:20:56;;;;;;;2.60;1.20;;;;;;;;;;107637;285;42633;-31
2023/04/26 01:23:30;;;;;;;3.00;1.20;;;;;;;;;;107633;285;42510;-31
2023/04/26 01:26:05;;;;;;;3.10;1.20;;;;;;;;;;107629;285;40468;-31
2023/04/26 01:28:40;;;;;;;2.90;1.20;;;;;;;;;;107631;285;39765;-31
2023/04/26 01:31:16;;;;;;;2.80;1.20;;;;;;;;;;107622;285;44200;-31
2023/04/26 01:33:52;;;;;;;2.20;1.10;;;;;;;;;;107661;285;43396;-31
2023/04/26 01:36:28;;;;;;;3.00;1.50;;;;;;;;;;107584;285;38814;-31
2023/04/26 01:39:04;;;;;;;2.80;1.20;;;;;;;;;;107530;285;39700;-31
2023/04/26 01:41:39;;;;;;;2.80;1.30;;;;;;;;;;107216;277;43349;-31
2023/04/26 01:44:15;;;;;;;2.30;1.00;;;;;;;;;;107673;285;42226;-31
2023/04/26 01:46:49;;;;;;;3.00;1.30;;;;;;;;;;107595;285;38817;-31
2023/04/26 01:49:23;;;;;;;3.40;1.20;;;;;;;;;;107627;283;39915;-31
2023/04/26 01:51:59;;;;;;;2.80;1.10;;;;;;;;;;107640;277;43036;-31
2023/04/26 01:54:34;;;;;;;2.90;1.30;;;;;;;;;;107625;285;42555;-31
2023/04/26 01:57:09;;;;;;;2.90;1.10;;;;;;;;;;107574;285;38853;-31
2023/04/26 01:59:44;;;;;;;2.20;1.00;;;;;;;;;;107664;277;39801;-31
2023/04/26 02:02:21;;;;;;;3.00;1.30;;;;;;;;;;107660;285;44005;-31
2023/04/26 02:04:56;;;;;;;2.90;1.20;;;;;;;;;;107624;289;43300;-31
2023/04/26 02:07:31;;;;;;;2.60;1.20;;;;;;;;;;107594;285;38791;-31
2023/04/26 02:10:05;;;;;;;3.00;1.20;;;;;;;;;;107598;285;41794;-31
2023/04/26 02:12:40;;;;;;;2.30;1.10;;;;;;;;;;107621;285;43049;-31
2023/04/26 02:15:14;;;;;;;2.40;1.10;;;;;;;;;;107637;285;42248;-31
2023/04/26 02:17:52;;;;;;;2.60;1.00;;;;;;;;;;107642;283;38959;-31
2023/04/26 02:20:28;;;;;;;2.60;1.10;;;;;;;;;;107659;283;39762;-31
2023/04/26 02:23:02;;;;;;;2.60;1.10;;;;;;;;;;107629;283;42900;-31
2023/04/26 02:25:40;;;;;;;2.90;1.00;;;;;;;;;;107448;286;42551;-31
2023/04/26 02:28:16;;;;;;;2.30;0.90;;;;;;;;;;107610;283;44421;-31
2023/04/26 02:30:50;;;;;;;1.90;0.90;;;;;;;;;;107639;285;39731;-31
2023/04/26 02:33:26;;;;;;;2.60;1.00;;;;;;;;;;107620;285;43014;-31
2023/04/26 02:36:05;;;;;;;2.40;1.10;;;;;;;;;;107665;282;43276;-31
2023/04/26 02:38:43;;;;;;;2.30;1.00;;;;;;;;;;107597;282;45670;-31
2023/04/26 02:41:19;;;;;;;2.50;1.10;;;;;;;;;;107665;283;39770;-31
2023/04/26 02:43:55;;;;;;;2.80;1.60;;;;;;;;;;107629;285;42744;-31
2023/04/26 02:46:30;;;;;;;2.80;1.10;;;;;;;;;;107616;285;41889;-31
2023/04/26 02:49:05;;;;;;;2.50;1.00;;;;;;;;;;107656;285;38832;-31
2023/04/26 02:51:42;;;;;;;2.70;1.10;;;;;;;;;;107634;283;39904;-31
2023/04/26 02:54:19;;;;;;;2.50;1.00;;;;;;;;;;107644;285;42901;-31
2023/04/26 02:56:54;;;;;;;2.50;1.10;;;;;;;;;;107606;285;42166;-31
2023/04/26 02:59:29;;;;;;;2.30;1.00;;;;;;;;;;107637;285;38958;-31
2023/04/26 03:02:06;;;;;;;2.50;1.10;;;;;;;;;;107647;283;39695;-31
2023/04/26 03:04:40;;;;;;;2.90;1.10;;;;;;;;;;107625;285;42958;-31
2023/04/26 03:07:17;;;;;;;3.10;1.10;;;;;;;;;;107625;283;41950;-31
2023/04/26 03:09:55;;;;;;;2.70;1.20;;;;;;;;;;107639;285;38921;-31
2023/04/26 03:12:33;;;;;;;3.90;1.30;;;;;;;;;;107601;285;39726;-31
2023/04/26 03:15:09;;;;;;;3.10;1.20;;;;;;;;;;107573;285;42853;-31
2023/04/26 03:17:46;;;;;;;3.80;1.30;;;;;;;;;;107609;285;41865;-31
2023/04/26 03:20:23;;;;;;;3.00;1.30;;;;;;;;;;107635;285;39041;-31
2023/04/26 03:22:59;;;;;;;3.40;1.40;;;;;;;;;;107642;285;40696;-31
2023/04/26 03:25:34;;;;;;;3.80;1.60;;;;;;;;;;107658;285;44092;-31
2023/04/26 03:28:08;;;;;;;3.40;1.40;;;;;;;;;;107626;277;43564;-31
2023/04/26 03:30:42;;;;;;;3.20;1.30;;;;;;;;;;107680;283;38893;-31
2023/04/26 03:33:16;;;;;;;3.80;1.30;;;;;;;;;;107660;283;39868;-31
2023/04/26 03:35:51;;;;;;;3.50;1.40;;;;;;;;;;107674;283;43044;-31
2023/04/26 03:38:25;;;;;;;3.30;1.30;;;;;;;;;;107619;283;42299;-31
2023/04/26 03:40:59;;;;;;;4.00;1.50;;;;;;;;;;107656;282;38835;-31
2023/04/26 03:43:32;;;;;;;3.60;1.40;;;;;;;;;;107676;284;39697;-31
2023/04/26 03:46:06;;;;;;;3.40;1.40;;;;;;;;;;107636;282;42904;-31
2023/04/26 03:48:41;;;;;;;4.30;1.50;;;;;;;;;;107621;283;42190;-31
2023/04/26 03:51:14;;;;;;;4.40;1.60;;;;;;;;;;107639;283;38846;-31
2023/04/26 03:53:48;;;;;;;3.70;1.60;;;;;;;;;;107647;285;39798;-31
2023/04/26 03:56:22;;;;;;;4.10;1.60;;;;;;;;;;107646;285;43042;-31
2023/04/26 03:58:55;;;;;;;4.40;1.50;;;;;;;;;;107624;277;43303;-31
2023/04/26 04:01:31;;;;;;;4.20;1.50;;;;;;;;;;107651;285;39015;-31
2023/04/26 04:04:06;;;;;;;3.70;1.50;;;;;;;;;;107649;285;39751;-31
2023/04/26 04:06:40;;;;;;;4.60;1.80;;;;;;;;;;107644;285;43188;-31
2023/04/26 04:09:14;;;;;;;4.20;1.70;;;;;;;;;;107618;282;43321;-31
2023/04/26 04:11:49;;;;;;;4.00;1.80;;;;;;;;;;107615;285;38790;-31
2023/04/26 04:14:25;;;;;;;4.70;1.60;;;;;;;;;;107664;285;39744;-31
2023/04/26 04:17:00;;;;;;;4.30;1.70;;;;;;;;;;107649;285;43016;-31
2023/04/26 04:19:39;;;;;;;4.40;1.60;;;;;;;;;;107611;283;42365;-31
2023/04/26 04:22:15;;;;;;;5.00;1.80;;;;;;;;;;107634;277;40019;-31
2023/04/26 04:24:51;;;;;;;4.80;1.80;;;;;;;;;;107644;282;39779;-31
2023/04/26 04:27:30;;;;;;;4.10;1.90;;;;;;;;;;107649;282;42901;-31
2023/04/26 04:30:07;;;;;;;3.80;1.80;;;;;;;;;;107606;285;43181;-31
2023/04/26 04:32:45;;;;;;;4.00;1.60;;;;;;;;;;107642;285;38804;-31
2023/04/26 04:35:27;;;;;;;4.40;1.70;;;;;;;;;;107510;285;175672;-31
2023/04/26 04:38:03;;;;;;;3.80;1.60;;;;;;;;;;107632;282;44073;-31
2023/04/26 04:40:37;;;;;;;4.10;1.80;;;;;;;;;;107602;282;42172;-31
2023/04/26 04:43:12;;;;;;;4.70;1.70;;;;;;;;;;107550;281;175711;-31
2023/04/26 04:45:48;;;;;;;6.20;1.80;;;;;;;;;;107644;277;39838;-31
2023/04/26 04:48:24;;;;;;;4.00;1.70;;;;;;;;;;107650;285;42927;-31
2023/04/26 04:50:59;;;;;;;4.20;1.60;;;;;;;;;;107611;282;42150;-31
2023/04/26 04:53:35;;;;;;;3.90;2.00;;;;;;;;;;107635;283;40234;-31
2023/04/26 04:56:09;;;;;;;4.20;1.70;;;;;;;;;;107642;285;39678;-31
2023/04/26 04:58:45;;;;;;;4.30;1.70;;;;;;;;;;107657;285;42722;-31
2023/04/26 05:01:20;;;;;;;4.20;1.70;;;;;;;;;;106983;285;895681;-31
2023/04/26 05:03:54;;;;;;;4.50;1.70;;;;;;;;;;107710;284;38829;-31
2023/04/26 05:06:32;;;;;;;3.70;1.60;;;;;;;;;;107673;285;39858;-31
2023/04/26 05:09:06;;;;;;;3.50;1.60;;;;;;;;;;107643;285;43063;-31
2023/04/26 05:11:41;;;;;;;4.90;1.90;;;;;;;;;;107614;283;42238;-31
2023/04/26 05:14:16;;;;;;;4.00;1.80;;;;;;;;;;107664;285;38933;-31
2023/04/26 05:16:50;;;;;;;4.20;1.70;;;;;;;;;;107638;285;39776;-31
2023/04/26 05:19:24;;;;;;;4.30;1.70;;;;;;;;;;107643;283;43334;-31
2023/04/26 05:21:59;;;;;;;3.70;1.60;;;;;;;;;;107580;284;48100;-31
2023/04/26 05:24:35;;;;;;;3.70;1.80;;;;;;;;;;107640;283;38793;-31
2023/04/26 05:27:13;;;;;;;4.60;1.80;;;;;;;;;;107648;284;39837;-31
2023/04/26 05:29:47;;;;;;;4.30;1.80;;;;;;;;;;107660;285;43986;-31
2023/04/26 05:32:22;;;;;;;5.10;2.00;;;;;;;;;;107650;285;42180;-31
2023/04/26 05:34:58;;;;;;;4.70;1.80;;;;;;;;;;107635;283;38787;-31
2023/04/26 05:37:33;;;;;;;4.20;1.70;;;;;;;;;;107650;285;39681;-31
2023/04/26 05:40:11;;;;;;;4.30;1.70;;;;;;;;;;107610;285;43105;-31
2023/04/26 05:42:45;;;;;;;4.20;1.80;;;;;;;;;;107651;285;49291;-31
2023/04/26 05:45:20;;;;;;;4.40;1.80;;;;;;;;;;107637;285;38821;-31
2023/04/26 05:47:54;;;;;;;3.90;1.70;;;;;;;;;;107532;285;175695;-31
2023/04/26 05:50:30;;;;;;;4.20;1.70;;;;;;;;;;107628;285;42912;-31
2023/04/26 05:53:03;;;;;;;4.30;1.80;;;;;;;;;;107624;286;47991;-31
2023/04/26 05:55:37;;;;;;;3.30;1.40;;;;;;;;;;107657;285;38804;-31
2023/04/26 05:58:11;;;;;;;4.20;1.90;;;;;;;;;;107667;281;39744;-31
2023/04/26 06:00:46;;;;;;;4.50;1.80;;;;;;;;;;107618;285;44077;-31
2023/04/26 06:03:20;;;;;;;4.30;1.80;;;;;;;;;;107517;285;175699;-31
2023/04/26 06:05:55;;;;;;;4.30;2.00;;;;;;;;;;107628;283;39939;-31
2023/04/26 06:08:30;;;;;;;4.60;1.80;;;;;;;;;;107637;277;39512;-31
2023/04/26 06:11:04;;;;;;;4.10;1.70;;;;;;;;;;107592;283;44174;-32
2023/04/26 06:13:38;;;;;;;4.00;1.60;;;;;;;;;;107612;283;48372;-31
2023/04/26 06:16:12;;;;;;;3.80;1.50;;;;;;;;;;107595;285;38653;-31
2023/04/26 06:18:47;;;;;;;4.30;1.70;;;;;;;;;;107648;285;40032;-31
2023/04/26 06:21:23;;;;;;;4.50;2.00;;;;;;;;;;107614;277;43017;-31
2023/04/26 06:23:57;;;;;;;4.30;1.90;;;;;;;;;;107657;282;49399;-31
2023/04/26 06:26:31;;;;;;;4.50;1.70;;;;;;;;;;107664;283;38910;-31
2023/04/26 06:29:07;;;;;;;3.80;1.60;;;;;;;;;;107658;285;39484;-31
2023/04/26 06:31:42;;;;;;;4.30;1.90;;;;;;;;;;107586;285;42985;-31
2023/04/26 06:34:16;;;;;;;3.70;1.60;;;;;;;;;;107631;283;49447;-31
2023/04/26 06:36:50;;;;;;;5.20;2.00;;;;;;;;;;107639;283;38799;-31
2023/04/26 06:39:26;;;;;;;4.20;1.80;;;;;;;;;;107625;283;39696;-31
2023/04/26 06:42:03;;;;;;;5.00;1.70;;;;;;;;;;107638;283;45003;-31
2023/04/26 06:44:38;;;;;;;4.10;1.60;;;;;;;;;;107633;285;48297;-31
2023/04/26 06:47:14;;;;;;;4.30;1.70;;;;;;;;;;107621;286;38963;-31
2023/04/26 06:49:50;;;;;;;3.80;1.60;;;;;;;;;;107635;290;39801;-31
2023/04/26 06:52:28;;;;;;;4.70;1.70;;;;;;;;;;107627;285;42966;-31
2023/04/26 06:55:04;;;;;;;4.50;1.70;;;;;;;;;;106997;285;898056;-31
2023/04/26 06:57:38;;;;;;;4.10;1.80;;;;;;;;;;107647;285;38809;-31
2023/04/26 07:00:16;;;;;;;4.50;1.70;;;;;;;;;;107635;285;39980;-31
2023/04/26 07:02:51;;;;;;;5.00;1.90;;;;;;;;;;107608;285;43360;-31
2023/04/26 07:05:29;;;;;;;4.50;1.60;;;;;;;;;;107642;286;43027;-31
2023/04/26 07:08:02;;;;;;;3.90;1.40;;;;;;;;;;107637;284;38795;-31
2023/04/26 07:10:36;;;;;;;4.60;1.70;;;;;;;;;;107647;285;40836;-31
2023/04/26 07:13:11;;;;;;;5.10;1.80;;;;;;;;;;107571;285;43271;-31
2023/04/26 07:15:46;;;;;;;4.80;1.70;;;;;;;;;;107644;286;42148;-32
2023/04/26 07:18:23;;;;;;;4.70;1.70;;;;;;;;;;107628;285;38832;-31
2023/04/26 07:20:58;;;;;;;4.60;1.60;;;;;;;;;;107629;285;39741;-31
2023/04/26 07:23:34;;;;;;;4.20;1.70;;;;;;;;;;107617;285;44086;-31
2023/04/26 07:26:10;;;;;;;4.20;1.70;;;;;;;;;;107670;285;42208;-31
2023/04/26 07:28:43;;;;;;;5.60;2.10;;;;;;;;;;107655;281;39886;-31
2023/04/26 07:31:17;;;;;;;4.50;1.60;;;;;;;;;;107664;285;39828;-31
2023/04/26 07:33:50;;;;;;;5.30;1.70;;;;;;;;;;107531;285;42895;-32
2023/04/26 07:36:26;;;;;;;4.70;1.70;;;;;;;;;;107619;283;42168;-32
2023/04/26 07:39:04;;;;;;;4.90;1.60;;;;;;;;;;106968;284;913748;-32
2023/04/26 07:41:38;;;;;;;4.30;1.70;;;;;;;;;;107619;283;39795;-32
2023/04/26 07:44:17;;;;;;;4.50;1.70;;;;;;;;;;107586;285;43139;-33
2023/04/26 07:46:51;;;;;;;4.60;1.50;;;;;;;;;;107652;285;42156;-32
2023/04/26 07:49:24;;;;;;;4.40;1.70;;;;;;;;;;107649;285;38768;-32
2023/04/26 07:52:01;;;;;;;5.60;1.70;;;;;;;;;;107644;285;39686;-32
2023/04/26 07:54:34;;;;;;;4.90;1.70;;;;;;;;;;107599;285;42913;-32
2023/04/26 07:57:08;;;;;;;4.80;1.70;;;;;;;;;;107632;285;42240;-33
2023/04/26 07:59:43;;;;;;;5.00;1.80;;;;;;;;;;107670;285;38833;-32
2023/04/26 08:02:17;;;;;;;5.00;1.60;;;;;;;;;;107509;286;40876;-32
2023/04/26 08:04:57;;;;;;;4.40;1.60;;;;;;;;;;107578;285;43077;-32
2023/04/26 08:07:31;;;;;;;4.20;1.60;;;;;;;;;;107601;284;42192;-32
2023/04/26 08:10:09;;;;;;;3.90;1.40;;;;;;;;;;107627;289;38819;-32
2023/04/26 08:12:43;;;;;;;5.30;1.50;;;;;;;;;;107644;285;39851;-33
2023/04/26 08:15:18;;;;;;;4.40;1.50;;;;;;;;;;107584;282;42901;-32
2023/04/26 08:17:55;;;;;;;4.50;1.50;;;;;;;;;;107621;285;42197;-32
2023/04/26 08:20:31;;;;;;;3.70;1.40;;;;;;;;;;107630;277;39040;-33
2023/04/26 08:23:06;;;;;;;4.60;1.60;;;;;;;;;;107658;285;39743;-33
2023/04/26 08:25:40;;;;;;;4.80;1.70;;;;;;;;;;107615;285;43158;-32
2023/04/26 08:28:15;;;;;;;4.30;1.60;;;;;;;;;;107621;281;42181;-32
2023/04/26 08:30:52;;;;;;;4.20;1.50;;;;;;;;;;107631;282;38569;-32
2023/04/26 08:33:27;;;;;;;4.20;1.50;;;;;;;;;;107603;282;40751;-32
2023/04/26 08:36:03;;;;;;;4.00;1.60;;;;;;;;;;107567;285;43357;-32
2023/04/26 08:38:37;;;;;;;3.70;1.40;;;;;;;;;;107633;285;42468;-32
2023/04/26 08:41:14;;;;;;;3.50;1.50;;;;;;;;;;107594;282;40095;-33
2023/04/26 08:43:48;;;;;;;4.20;1.40;;;;;;;;;;107510;285;175602;-33
2023/04/26 08:46:22;;;;;;;3.70;1.30;;;;;;;;;;107632;285;42956;-33
2023/04/26 08:49:16;;;;;;;4.30;1.40;;;;;;;;;;107610;285;42537;-33
2023/04/26 08:51:53;;;;;;;3.60;1.30;;;;;;;;;;107562;285;38970;-33
2023/04/26 08:54:28;;;;;;;3.80;1.40;;;;;;;;;;107638;285;39523;-33
2023/04/26 08:57:04;;;;;;;4.20;1.40;;;;;;;;;;107559;285;43331;-33
2023/04/26 08:59:39;;;;;;;3.40;1.40;;;;;;;;;;107623;283;43295;-32
2023/04/26 09:02:17;;;;;;;4.40;1.40;;;;;;;;;;107678;285;40066;-32
2023/04/26 09:04:52;;;;;;;3.20;1.20;;;;;;;;;;107594;282;41065;-32
2023/04/26 09:07:33;;;;;;;4.40;1.30;;;;;;;;;;107711;285;44097;-33
2023/04/26 09:10:09;;;;;;;3.50;1.20;;;;;;;;;;107596;285;42090;-32
2023/04/26 09:12:46;;;;;;;3.80;1.40;;;;;;;;;;107613;285;38796;-33
2023/04/26 09:15:22;;;;;;;3.50;1.30;;;;;;;;;;107602;285;39902;-32
2023/04/26 09:17:57;;;;;;;3.00;1.00;;;;;;;;;;107529;283;175687;-33
2023/04/26 09:20:32;;;;;;;3.90;1.20;;;;;;;;;;107607;285;42132;-33
2023/04/26 09:23:12;;;;;;;3.60;1.10;;;;;;;;;;107638;285;39914;-33
2023/04/26 09:25:49;;;;;;;4.00;1.30;;;;;;;;;;107565;285;39771;-33
2023/04/26 09:28:27;;;;;;;3.50;1.20;;;;;;;;;;107583;285;43414;-33
2023/04/26 09:31:03;;;;;;;3.20;1.10;;;;;;;;;;107637;285;43302;-32
2023/04/26 09:33:37;;;;;;;4.20;1.10;;;;;;;;;;107630;282;40222;-32
2023/04/26 09:36:19;;;;;;;3.40;1.20;;;;;;;;;;107584;285;39700;-32
2023/04/26 09:38:55;;;;;;;3.30;1.10;;;;;;;;;;107619;285;44707;-32
2023/04/26 09:41:45;;;;;;;3.50;1.00;;;;;;;;;;107026;284;525464;-32
2023/04/26 09:44:28;;;;;;;3.50;1.00;;;;;;;;;;107651;283;38748;-32
2023/04/26 09:47:08;;;;;;;3.40;1.20;;;;;;;;;;107594;285;40902;-32
2023/04/26 09:49:50;;;;;;;3.00;1.00;;;;;;;;;;107659;285;42722;-32
2023/04/26 09:52:28;;;;;;;2.60;1.10;;;;;;;;;;107634;285;43289;-32
2023/04/26 09:55:05;;;;;;;3.60;1.20;;;;;;;;;;107618;285;38531;-33
2023/04/26 09:57:48;;;;;;;3.00;1.10;;;;;;;;;;107512;283;175253;-33
2023/04/26 10:00:22;;;;;;;4.30;1.00;;;;;;;;;;107536;285;42905;-33
2023/04/26 10:02:57;;;;;;;4.60;1.40;;;;;;;;;;107686;286;41133;-33
2023/04/26 10:05:33;;;;;;;3.70;1.10;;;;;;;;;;107641;285;39831;-33
2023/04/26 10:08:10;;;;;;;4.60;1.20;;;;;;;;;;107598;290;39838;-32
2023/04/26 10:10:46;;;;;;;3.90;1.20;;;;;;;;;;107626;285;43009;-32
2023/04/26 10:13:21;;;;;;;3.40;1.10;;;;;;;;;;107663;283;42255;-33
2023/04/26 10:15:57;;;;;;;3.00;1.00;;;;;;;;;;107642;285;40124;-32
2023/04/26 10:18:35;;;;;;;3.50;0.90;;;;;;;;;;107609;285;41027;-32
2023/04/26 10:21:15;;;;;;;3.40;1.30;;;;;;;;;;107606;283;42754;-32
2023/04/26 10:23:52;;;;;;;3.40;1.10;;;;;;;;;;107617;285;42173;-32
2023/04/26 10:26:55;;;;;;;3.80;1.00;;;;;;;;;;107628;283;38759;-32
2023/04/26 10:30:11;;;;;;;4.00;1.10;;;;;;;;;;107605;282;45810;-33
2023/04/26 10:33:14;;;;;;;3.30;0.90;;;;;;;;;;107589;283;44082;-33
2023/04/26 10:36:13;;;;;;;3.30;1.00;;;;;;;;;;107642;285;42291;-33
2023/04/26 10:39:21;;;;;;;3.90;1.30;;;;;;;;;;107600;285;38524;-33
2023/04/26 10:42:22;;;;;;;3.30;0.80;;;;;;;;;;107511;285;175647;-33
2023/04/26 10:44:58;;;;;;;4.60;1.20;;;;;;;;;;107637;281;42946;-34
2023/04/26 10:47:36;;;;;;;4.10;1.20;;;;;;;;;;107634;285;42316;-32
2023/04/26 10:50:13;;;;;;;3.50;1.00;;;;;;;;;;107599;277;44993;-32
2023/04/26 10:53:13;;;;;;;3.90;1.10;;;;;;;;;;107633;285;39860;-32
2023/04/26 10:55:50;;;;;;;2.80;0.90;;;;;;;;;;107645;285;43269;-33
2023/04/26 10:58:33;;;;;;;3.40;1.00;;;;;;;;;;107616;283;42143;-33
2023/04/26 11:01:16;;;;;;;3.80;1.10;;;;;;;;;;107622;285;41068;-33
2023/04/26 11:04:11;;;;;;;3.80;1.20;;;;;;;;;;107645;283;39814;-33
2023/04/26 11:06:57;;;;;;;2.80;1.00;;;;;;;;;;107650;277;42913;-33
2023/04/26 11:09:39;;;;;;;3.50;1.00;;;;;;;;;;107611;285;42174;-33
2023/04/26 11:12:16;;;;;;;3.50;1.10;;;;;;;;;;107614;283;39848;-33
2023/04/26 11:14:51;;;;;;;3.30;1.10;;;;;;;;;;107633;283;40864;-33
2023/04/26 11:17:26;;;;;;;5.20;1.20;;;;;;;;;;107605;285;43131;-32
2023/04/26 11:20:00;;;;;;;3.80;1.10;;;;;;;;;;107613;285;43454;-33
2023/04/26 11:22:35;;;;;;;3.50;1.00;;;;;;;;;;107635;282;38795;-33
2023/04/26 11:25:10;;;;;;;4.10;1.20;;;;;;;;;;107635;285;39746;-33
2023/04/26 11:27:47;;;;;;;3.70;1.10;;;;;;;;;;107543;283;43396;-33
2023/04/26 11:30:24;;;;;;;3.00;1.10;;;;;;;;;;107617;285;42260;-33
2023/04/26 11:32:58;;;;;;;3.60;1.20;;;;;;;;;;107629;285;39877;-32
2023/04/26 11:35:34;;;;;;;3.00;1.10;;;;;;;;;;107598;282;39697;-33
2023/04/26 11:38:08;;;;;;;2.90;1.10;;;;;;;;;;107627;285;43079;-32
2023/04/26 11:40:42;;;;;;;3.60;1.10;;;;;;;;;;107580;290;42160;-33
2023/04/26 11:43:16;;;;;;;3.40;1.00;;;;;;;;;;107480;282;192011;-34
2023/04/26 11:45:49;;;;;;;3.20;1.10;;;;;;;;;;107621;285;39724;-33
2023/04/26 11:48:24;;;;;;;3.20;1.20;;;;;;;;;;107591;285;43294;-33
2023/04/26 11:51:00;;;;;;;3.60;1.10;;;;;;;;;;107586;285;42328;-33
2023/04/26 11:53:41;;;;;;;3.10;1.10;;;;;;;;;;107637;285;38887;-34
2023/04/26 11:56:19;;;;;;;2.80;1.00;;;;;;;;;;107640;285;39739;-33
2023/04/26 11:58:53;;;;;;;3.80;1.00;;;;;;;;;;107618;285;42676;-33
2023/04/26 12:01:31;;;;;;;4.10;1.10;;;;;;;;;;107543;285;49763;-32
2023/04/26 12:04:14;;;;;;;3.70;1.10;;;;;;;;;;107602;283;38869;-32
2023/04/26 12:06:49;;;;;;;3.20;1.00;;;;;;;;;;107604;289;39862;-33
2023/04/26 12:09:29;;;;;;;3.30;1.00;;;;;;;;;;107577;283;42926;-33
2023/04/26 12:12:05;;;;;;;2.80;1.00;;;;;;;;;;107611;285;49447;-33
2023/04/26 12:14:40;;;;;;;4.10;1.20;;;;;;;;;;107658;283;41016;-33
2023/04/26 12:17:17;;;;;;;4.00;1.10;;;;;;;;;;107626;289;39880;-32
2023/04/26 12:19:52;;;;;;;3.80;1.20;;;;;;;;;;107555;285;43358;-32
2023/04/26 12:22:28;;;;;;;3.30;1.10;;;;;;;;;;107600;285;43274;-32
2023/04/26 12:25:10;;;;;;;4.00;1.20;;;;;;;;;;107579;285;38603;-32
2023/04/26 12:27:45;;;;;;;3.20;1.10;;;;;;;;;;107609;277;39745;-32
2023/04/26 12:30:20;;;;;;;3.20;1.00;;;;;;;;;;107575;285;42995;-33
2023/04/26 12:32:55;;;;;;;4.10;1.00;;;;;;;;;;107635;282;42311;-32
2023/04/26 12:35:43;;;;;;;3.30;1.20;;;;;;;;;;107576;285;38823;-33
2023/04/26 12:38:18;;;;;;;3.20;1.10;;;;;;;;;;107601;285;40118;-32
2023/04/26 12:40:52;;;;;;;3.80;1.10;;;;;;;;;;107577;285;42998;-32
2023/04/26 12:43:26;;;;;;;3.60;1.30;;;;;;;;;;107621;285;42158;-32
2023/04/26 12:45:59;;;;;;;3.20;1.10;;;;;;;;;;107605;285;38815;-32
2023/04/26 12:48:33;;;;;;;4.10;1.10;;;;;;;;;;107604;282;42023;-32
2023/04/26 12:51:07;;;;;;;3.60;1.20;;;;;;;;;;107566;285;42985;-32
2023/04/26 12:53:41;;;;;;;4.20;1.40;;;;;;;;;;107610;285;43289;-32
2023/04/26 12:56:15;;;;;;;3.50;1.10;;;;;;;;;;107615;285;38820;-33
2023/04/26 12:58:48;;;;;;;3.90;1.20;;;;;;;;;;107631;285;39858;-33
2023/04/26 13:01:22;;;;;;;3.40;1.00;;;;;;;;;;107528;290;42934;-32
2023/04/26 13:03:55;;;;;;;3.30;1.10;;;;;;;;;;107597;285;42366;-32
2023/04/26 13:06:31;;;;;;;3.10;1.10;;;;;;;;;;107613;285;40146;-33
2023/04/26 13:09:06;;;;;;;3.40;1.10;;;;;;;;;;107441;285;175591;-33
2023/04/26 13:11:40;;;;;;;3.70;1.20;;;;;;;;;;107567;283;44103;-32
2023/04/26 13:14:15;;;;;;;3.60;1.10;;;;;;;;;;107609;282;43361;-32
2023/04/26 13:16:51;;;;;;;3.40;1.10;;;;;;;;;;107465;282;38873;-33
2023/04/26 13:19:27;;;;;;;4.90;1.30;;;;;;;;;;107545;282;39633;-33
2023/04/26 13:22:02;;;;;;;4.00;1.10;;;;;;;;;;107597;282;44024;-32
2023/04/26 13:24:37;;;;;;;3.50;1.20;;;;;;;;;;107604;285;42175;-32
2023/04/26 13:27:10;;;;;;;3.70;1.20;;;;;;;;;;107772;285;38760;-32
2023/04/26 13:29:44;;;;;;;4.00;1.20;;;;;;;;;;107648;283;39870;-32
2023/04/26 13:32:19;;;;;;;5.10;1.50;;;;;;;;;;107656;285;42940;-32
2023/04/26 13:34:53;;;;;;;3.50;1.10;;;;;;;;;;107659;285;42612;-32
2023/04/26 13:37:27;;;;;;;3.20;1.20;;;;;;;;;;107690;282;38803;-32
2023/04/26 13:40:02;;;;;;;3.60;1.10;;;;;;;;;;107635;285;39804;-32
2023/04/26 13:42:36;;;;;;;3.70;1.20;;;;;;;;;;107563;282;42913;-32
2023/04/26 13:45:12;;;;;;;3.40;1.10;;;;;;;;;;107638;285;42595;-32
2023/04/26 13:47:47;;;;;;;3.40;1.20;;;;;;;;;;107661;285;38763;-32
2023/04/26 13:50:21;;;;;;;3.50;1.10;;;;;;;;;;107655;285;39688;-32
2023/04/26 13:52:55;;;;;;;3.90;1.20;;;;;;;;;;107654;285;42901;-32
2023/04/26 13:55:30;;;;;;;3.50;1.20;;;;;;;;;;107648;283;42245;-32
2023/04/26 13:58:04;;;;;;;3.50;1.20;;;;;;;;;;107656;285;38941;-32
2023/04/26 14:00:39;;;;;;;3.30;1.00;;;;;;;;;;107650;285;41900;-32
2023/04/26 14:03:13;;;;;;;3.40;1.30;;;;;;;;;;107594;285;44039;-32
2023/04/26 14:05:46;;;;;;;2.80;1.20;;;;;;;;;;107650;283;42120;-32
2023/04/26 14:08:21;;;;;;;3.00;1.10;;;;;;;;;;107663;285;39908;-32
2023/04/26 14:10:56;;;;;;;3.40;1.20;;;;;;;;;;107661;283;39772;-32
2023/04/26 14:13:29;;;;;;;3.80;1.50;;;;;;;;;;107580;285;175638;-32
2023/04/26 14:16:05;;;;;;;4.00;1.20;;;;;;;;;;107661;283;43184;-32
2023/04/26 14:18:43;;;;;;;4.00;1.20;;;;;;;;;;107656;285;39123;-32
2023/04/26 14:21:19;;;;;;;4.10;1.30;;;;;;;;;;107678;283;39991;-32
2023/04/26 14:23:53;;;;;;;4.00;1.20;;;;;;;;;;107652;283;44437;-32
2023/04/26 14:26:29;;;;;;;3.70;1.30;;;;;;;;;;107652;285;43250;-32
2023/04/26 14:29:03;;;;;;;3.90;1.30;;;;;;;;;;107643;286;39978;-32
2023/04/26 14:31:37;;;;;;;3.90;1.20;;;;;;;;;;107649;286;39826;-32
2023/04/26 14:34:12;;;;;;;3.90;1.30;;;;;;;;;;107616;285;42922;-32
2023/04/26 14:36:47;;;;;;;3.70;1.40;;;;;;;;;;107564;286;42223;-32
2023/04/26 14:39:22;;;;;;;4.10;1.40;;;;;;;;;;107581;287;38893;-32
2023/04/26 14:41:57;;;;;;;3.70;1.40;;;;;;;;;;107570;286;39751;-32
2023/04/26 14:44:31;;;;;;;3.90;1.40;;;;;;;;;;107571;285;43327;-32
2023/04/26 14:47:05;;;;;;;4.10;1.40;;;;;;;;;;107597;283;42175;-32
2023/04/26 14:49:40;;;;;;;4.10;1.40;;;;;;;;;;107659;286;38895;-32
2023/04/26 14:52:13;;;;;;;3.90;1.20;;;;;;;;;;107613;285;40248;-32
2023/04/26 14:54:47;;;;;;;4.80;1.30;;;;;;;;;;107595;283;43322;-32
2023/04/26 14:57:22;;;;;;;3.70;1.30;;;;;;;;;;107598;283;42134;-32
2023/04/26 15:00:05;;;;;;;3.60;1.30;;;;;;;;;;107496;284;38896;-33
2023/04/26 15:02:39;;;;;;;3.60;1.40;;;;;;;;;;107624;283;40882;-32
2023/04/26 15:05:14;;;;;;;5.00;1.50;;;;;;;;;;107676;286;42950;-33
2023/04/26 15:07:47;;;;;;;3.40;1.20;;;;;;;;;;107594;285;42144;-32
2023/04/26 15:10:21;;;;;;;4.30;1.30;;;;;;;;;;107674;285;38814;-32
2023/04/26 15:12:56;;;;;;;3.80;1.40;;;;;;;;;;107497;283;175612;-32
2023/04/26 15:15:31;;;;;;;4.80;1.70;;;;;;;;;;107740;285;49078;-32
2023/04/26 15:18:07;;;;;;;3.90;1.40;;;;;;;;;;107656;285;43311;-32
2023/04/26 15:20:44;;;;;;;3.40;1.40;;;;;;;;;;107545;283;191922;-32
2023/04/26 15:23:20;;;;;;;4.20;1.40;;;;;;;;;;107643;285;39731;-32
2023/04/26 15:25:55;;;;;;;3.80;1.40;;;;;;;;;;107654;283;49379;-32
2023/04/26 15:28:33;;;;;;;4.30;1.40;;;;;;;;;;107661;285;42128;-32
2023/04/26 15:31:10;;;;;;;3.30;1.40;;;;;;;;;;107674;285;38775;-33
2023/04/26 15:33:45;;;;;;;3.20;1.30;;;;;;;;;;107580;277;39702;-33
2023/04/26 15:36:20;;;;;;;4.10;1.40;;;;;;;;;;107596;284;44092;-33